sensor_id;sensor_type;location;lat;lon;timestamp;P1;durP1;ratioP1;P2;durP2;ratioP2
51128;SDS011;46230;47.522;19.098;2022-07-24T00:01:08;9.48;;;7.75;;
51128;SDS011;46230;47.522;19.098;2022-07-24T00:03:08;9.98;;;7.85;;
51128;SDS011;46230;47.522;19.098;2022-07-24T00:05:09;8.43;;;7.30;;
51128;SDS011;46230;47.522;19.098;2022-07-24T00:07:10;9.32;;;7.60;;
51128;SDS011;46230;47.522;19.098;2022-07-24T00:09:10;12.10;;;7.65;;
51128;SDS011;46230;47.522;19.098;2022-07-24T00:11:10;11.50;;;8.02;;
51128;SDS011;46230;47.522;19.098;2022-07-24T00:13:11;11.50;;;7.22;;
51128;SDS011;46230;47.522;19.098;2022-07-24T00:15:11;10.23;;;7.20;;
51128;SDS011;46230;47.522;19.098;2022-07-24T00:17:12;11.30;;;7.90;;
51128;SDS011;46230;47.522;19.098;2022-07-24T00:19:12;12.63;;;7.50;;
51128;SDS011;46230;47.522;19.098;2022-07-24T00:21:13;8.35;;;6.80;;
51128;SDS011;46230;47.522;19.098;2022-07-24T00:23:13;9.73;;;7.95;;
51128;SDS011;46230;47.522;19.098;2022-07-24T00:25:13;11.07;;;7.78;;
51128;SDS011;46230;47.522;19.098;2022-07-24T00:27:14;17.80;;;7.45;;
51128;SDS011;46230;47.522;19.098;2022-07-24T00:29:14;11.93;;;7.82;;
51128;SDS011;46230;47.522;19.098;2022-07-24T00:31:15;8.95;;;7.00;;
51128;SDS011;46230;47.522;19.098;2022-07-24T00:33:16;9.50;;;7.18;;
51128;SDS011;46230;47.522;19.098;2022-07-24T00:35:16;9.48;;;7.38;;
51128;SDS011;46230;47.522;19.098;2022-07-24T00:37:17;8.95;;;7.35;;
51128;SDS011;46230;47.522;19.098;2022-07-24T00:39:17;10.10;;;7.57;;
51128;SDS011;46230;47.522;19.098;2022-07-24T00:41:18;12.30;;;7.63;;
51128;SDS011;46230;47.522;19.098;2022-07-24T00:43:18;10.85;;;7.70;;
51128;SDS011;46230;47.522;19.098;2022-07-24T00:45:18;13.88;;;7.63;;
51128;SDS011;46230;47.522;19.098;2022-07-24T00:47:19;10.82;;;7.13;;
51128;SDS011;46230;47.522;19.098;2022-07-24T00:49:20;9.00;;;6.72;;
51128;SDS011;46230;47.522;19.098;2022-07-24T00:51:20;11.35;;;7.72;;
51128;SDS011;46230;47.522;19.098;2022-07-24T00:53:21;9.70;;;7.45;;
51128;SDS011;46230;47.522;19.098;2022-07-24T00:55:21;8.30;;;7.43;;
51128;SDS011;46230;47.522;19.098;2022-07-24T00:57:22;10.35;;;7.00;;
51128;SDS011;46230;47.522;19.098;2022-07-24T00:59:22;11.13;;;7.20;;
51128;SDS011;46230;47.522;19.098;2022-07-24T01:01:23;10.98;;;7.63;;
51128;SDS011;46230;47.522;19.098;2022-07-24T01:03:23;10.57;;;7.70;;
51128;SDS011;46230;47.522;19.098;2022-07-24T01:05:24;9.52;;;7.07;;
51128;SDS011;46230;47.522;19.098;2022-07-24T01:07:24;10.98;;;7.25;;
51128;SDS011;46230;47.522;19.098;2022-07-24T01:09:25;12.80;;;7.40;;
51128;SDS011;46230;47.522;19.098;2022-07-24T01:11:25;13.00;;;6.85;;
51128;SDS011;46230;47.522;19.098;2022-07-24T01:13:26;11.82;;;6.97;;
51128;SDS011;46230;47.522;19.098;2022-07-24T01:15:26;11.95;;;7.32;;
51128;SDS011;46230;47.522;19.098;2022-07-24T01:17:30;10.18;;;6.97;;
51128;SDS011;46230;47.522;19.098;2022-07-24T01:19:31;12.52;;;7.70;;
51128;SDS011;46230;47.522;19.098;2022-07-24T01:21:31;9.55;;;7.13;;
51128;SDS011;46230;47.522;19.098;2022-07-24T01:23:32;10.30;;;7.25;;
51128;SDS011;46230;47.522;19.098;2022-07-24T01:25:33;9.82;;;7.40;;
51128;SDS011;46230;47.522;19.098;2022-07-24T01:27:34;16.25;;;7.25;;
51128;SDS011;46230;47.522;19.098;2022-07-24T01:29:34;12.52;;;7.22;;
51128;SDS011;46230;47.522;19.098;2022-07-24T01:31:34;8.68;;;6.88;;
51128;SDS011;46230;47.522;19.098;2022-07-24T01:33:35;8.55;;;6.72;;
51128;SDS011;46230;47.522;19.098;2022-07-24T01:35:35;11.93;;;7.30;;
51128;SDS011;46230;47.522;19.098;2022-07-24T01:37:36;9.60;;;6.50;;
51128;SDS011;46230;47.522;19.098;2022-07-24T01:39:36;14.48;;;7.40;;
51128;SDS011;46230;47.522;19.098;2022-07-24T01:41:36;10.02;;;7.72;;
51128;SDS011;46230;47.522;19.098;2022-07-24T01:43:37;11.07;;;7.40;;
51128;SDS011;46230;47.522;19.098;2022-07-24T01:45:37;11.60;;;7.10;;
51128;SDS011;46230;47.522;19.098;2022-07-24T01:47:38;12.57;;;6.88;;
51128;SDS011;46230;47.522;19.098;2022-07-24T01:49:38;9.02;;;7.25;;
51128;SDS011;46230;47.522;19.098;2022-07-24T01:51:38;8.10;;;7.30;;
51128;SDS011;46230;47.522;19.098;2022-07-24T01:53:39;9.07;;;6.60;;
51128;SDS011;46230;47.522;19.098;2022-07-24T01:55:39;12.60;;;7.70;;
51128;SDS011;46230;47.522;19.098;2022-07-24T01:57:40;9.18;;;6.70;;
51128;SDS011;46230;47.522;19.098;2022-07-24T01:59:40;11.57;;;7.15;;
51128;SDS011;46230;47.522;19.098;2022-07-24T02:01:41;10.02;;;6.43;;
51128;SDS011;46230;47.522;19.098;2022-07-24T02:03:41;10.32;;;6.93;;
51128;SDS011;46230;47.522;19.098;2022-07-24T02:05:42;10.95;;;7.28;;
51128;SDS011;46230;47.522;19.098;2022-07-24T02:07:42;8.27;;;6.70;;
51128;SDS011;46230;47.522;19.098;2022-07-24T02:09:43;8.75;;;6.60;;
51128;SDS011;46230;47.522;19.098;2022-07-24T02:11:44;14.02;;;7.03;;
51128;SDS011;46230;47.522;19.098;2022-07-24T02:13:44;15.68;;;7.13;;
51128;SDS011;46230;47.522;19.098;2022-07-24T02:15:45;10.18;;;6.40;;
51128;SDS011;46230;47.522;19.098;2022-07-24T02:17:49;8.82;;;6.13;;
51128;SDS011;46230;47.522;19.098;2022-07-24T02:19:50;9.80;;;6.63;;
51128;SDS011;46230;47.522;19.098;2022-07-24T02:21:50;10.73;;;6.85;;
51128;SDS011;46230;47.522;19.098;2022-07-24T02:23:51;10.52;;;6.38;;
51128;SDS011;46230;47.522;19.098;2022-07-24T02:25:51;9.23;;;6.57;;
51128;SDS011;46230;47.522;19.098;2022-07-24T02:27:51;10.48;;;6.63;;
51128;SDS011;46230;47.522;19.098;2022-07-24T02:29:52;7.88;;;6.18;;
51128;SDS011;46230;47.522;19.098;2022-07-24T02:31:52;9.18;;;6.60;;
51128;SDS011;46230;47.522;19.098;2022-07-24T02:33:53;8.52;;;6.20;;
51128;SDS011;46230;47.522;19.098;2022-07-24T02:35:53;8.38;;;6.30;;
51128;SDS011;46230;47.522;19.098;2022-07-24T02:37:53;9.13;;;6.95;;
51128;SDS011;46230;47.522;19.098;2022-07-24T02:39:54;8.00;;;6.30;;
51128;SDS011;46230;47.522;19.098;2022-07-24T02:41:54;11.00;;;6.43;;
51128;SDS011;46230;47.522;19.098;2022-07-24T02:43:54;9.65;;;5.88;;
51128;SDS011;46230;47.522;19.098;2022-07-24T02:45:55;9.15;;;6.30;;
51128;SDS011;46230;47.522;19.098;2022-07-24T02:47:56;9.63;;;6.22;;
51128;SDS011;46230;47.522;19.098;2022-07-24T02:49:57;7.28;;;6.47;;
51128;SDS011;46230;47.522;19.098;2022-07-24T02:51:58;16.63;;;6.20;;
51128;SDS011;46230;47.522;19.098;2022-07-24T02:53:58;8.93;;;6.40;;
51128;SDS011;46230;47.522;19.098;2022-07-24T02:55:58;10.13;;;6.78;;
51128;SDS011;46230;47.522;19.098;2022-07-24T02:57:59;8.02;;;5.57;;
51128;SDS011;46230;47.522;19.098;2022-07-24T02:59:59;10.68;;;6.47;;
51128;SDS011;46230;47.522;19.098;2022-07-24T03:02:00;9.38;;;6.40;;
51128;SDS011;46230;47.522;19.098;2022-07-24T03:04:00;9.43;;;6.60;;
51128;SDS011;46230;47.522;19.098;2022-07-24T03:06:01;10.90;;;6.70;;
51128;SDS011;46230;47.522;19.098;2022-07-24T03:08:01;7.22;;;6.18;;
51128;SDS011;46230;47.522;19.098;2022-07-24T03:10:03;9.07;;;6.25;;
51128;SDS011;46230;47.522;19.098;2022-07-24T03:14:04;8.40;;;6.07;;
51128;SDS011;46230;47.522;19.098;2022-07-24T03:16:05;6.32;;;5.53;;
51128;SDS011;46230;47.522;19.098;2022-07-24T03:18:06;10.25;;;6.53;;
51128;SDS011;46230;47.522;19.098;2022-07-24T03:20:06;9.95;;;6.32;;
51128;SDS011;46230;47.522;19.098;2022-07-24T03:24:09;11.55;;;6.75;;
51128;SDS011;46230;47.522;19.098;2022-07-24T03:26:09;7.72;;;5.88;;
51128;SDS011;46230;47.522;19.098;2022-07-24T03:28:10;9.98;;;6.22;;
51128;SDS011;46230;47.522;19.098;2022-07-24T03:30:10;11.98;;;6.75;;
51128;SDS011;46230;47.522;19.098;2022-07-24T03:32:11;8.52;;;6.28;;
51128;SDS011;46230;47.522;19.098;2022-07-24T03:34:12;13.15;;;6.43;;
51128;SDS011;46230;47.522;19.098;2022-07-24T03:36:12;13.30;;;6.03;;
51128;SDS011;46230;47.522;19.098;2022-07-24T03:38:13;8.43;;;6.40;;
51128;SDS011;46230;47.522;19.098;2022-07-24T03:40:13;8.50;;;6.05;;
51128;SDS011;46230;47.522;19.098;2022-07-24T03:42:14;7.18;;;6.25;;
51128;SDS011;46230;47.522;19.098;2022-07-24T03:44:14;11.10;;;6.35;;
51128;SDS011;46230;47.522;19.098;2022-07-24T03:46:15;7.05;;;6.07;;
51128;SDS011;46230;47.522;19.098;2022-07-24T03:48:15;7.75;;;6.20;;
51128;SDS011;46230;47.522;19.098;2022-07-24T03:50:15;12.30;;;6.50;;
51128;SDS011;46230;47.522;19.098;2022-07-24T03:52:16;6.78;;;6.05;;
51128;SDS011;46230;47.522;19.098;2022-07-24T03:54:16;7.40;;;6.00;;
51128;SDS011;46230;47.522;19.098;2022-07-24T03:56:17;10.50;;;6.50;;
51128;SDS011;46230;47.522;19.098;2022-07-24T03:58:17;7.95;;;5.85;;
51128;SDS011;46230;47.522;19.098;2022-07-24T04:00:17;16.85;;;6.90;;
51128;SDS011;46230;47.522;19.098;2022-07-24T04:02:18;7.78;;;6.28;;
51128;SDS011;46230;47.522;19.098;2022-07-24T04:04:18;7.53;;;6.15;;
51128;SDS011;46230;47.522;19.098;2022-07-24T04:06:19;9.35;;;6.03;;
51128;SDS011;46230;47.522;19.098;2022-07-24T04:08:19;9.38;;;6.10;;
51128;SDS011;46230;47.522;19.098;2022-07-24T04:10:20;10.90;;;6.30;;
51128;SDS011;46230;47.522;19.098;2022-07-24T04:12:20;9.18;;;6.22;;
51128;SDS011;46230;47.522;19.098;2022-07-24T04:14:20;10.07;;;6.40;;
51128;SDS011;46230;47.522;19.098;2022-07-24T04:16:21;9.85;;;6.65;;
51128;SDS011;46230;47.522;19.098;2022-07-24T04:18:21;9.45;;;6.07;;
51128;SDS011;46230;47.522;19.098;2022-07-24T04:20:22;7.88;;;6.05;;
51128;SDS011;46230;47.522;19.098;2022-07-24T04:22:23;11.32;;;6.00;;
51128;SDS011;46230;47.522;19.098;2022-07-24T04:24:23;9.13;;;6.00;;
51128;SDS011;46230;47.522;19.098;2022-07-24T04:26:24;12.93;;;6.40;;
51128;SDS011;46230;47.522;19.098;2022-07-24T04:28:24;9.77;;;5.90;;
51128;SDS011;46230;47.522;19.098;2022-07-24T04:30:24;9.32;;;6.57;;
51128;SDS011;46230;47.522;19.098;2022-07-24T04:32:25;10.13;;;6.13;;
51128;SDS011;46230;47.522;19.098;2022-07-24T04:34:25;7.43;;;6.13;;
51128;SDS011;46230;47.522;19.098;2022-07-24T04:36:26;13.20;;;6.68;;
51128;SDS011;46230;47.522;19.098;2022-07-24T04:38:26;7.88;;;6.07;;
51128;SDS011;46230;47.522;19.098;2022-07-24T04:40:26;10.75;;;6.22;;
51128;SDS011;46230;47.522;19.098;2022-07-24T04:42:27;9.07;;;6.47;;
51128;SDS011;46230;47.522;19.098;2022-07-24T04:44:27;11.85;;;6.45;;
51128;SDS011;46230;47.522;19.098;2022-07-24T04:46:28;7.93;;;6.40;;
51128;SDS011;46230;47.522;19.098;2022-07-24T04:48:28;11.65;;;6.40;;
51128;SDS011;46230;47.522;19.098;2022-07-24T04:50:28;9.35;;;6.22;;
51128;SDS011;46230;47.522;19.098;2022-07-24T04:52:29;11.85;;;6.53;;
51128;SDS011;46230;47.522;19.098;2022-07-24T04:54:29;7.38;;;6.55;;
51128;SDS011;46230;47.522;19.098;2022-07-24T04:56:30;9.73;;;6.47;;
51128;SDS011;46230;47.522;19.098;2022-07-24T04:58:30;8.93;;;6.50;;
51128;SDS011;46230;47.522;19.098;2022-07-24T05:00:30;10.65;;;7.03;;
51128;SDS011;46230;47.522;19.098;2022-07-24T05:02:31;8.75;;;6.55;;
51128;SDS011;46230;47.522;19.098;2022-07-24T05:04:31;14.73;;;7.53;;
51128;SDS011;46230;47.522;19.098;2022-07-24T05:06:32;11.98;;;7.57;;
51128;SDS011;46230;47.522;19.098;2022-07-24T05:08:32;11.25;;;7.30;;
51128;SDS011;46230;47.522;19.098;2022-07-24T05:10:32;10.85;;;7.30;;
51128;SDS011;46230;47.522;19.098;2022-07-24T05:12:33;11.75;;;7.15;;
51128;SDS011;46230;47.522;19.098;2022-07-24T05:14:33;9.63;;;7.03;;
51128;SDS011;46230;47.522;19.098;2022-07-24T05:16:33;8.07;;;7.28;;
51128;SDS011;46230;47.522;19.098;2022-07-24T05:18:34;10.18;;;7.57;;
51128;SDS011;46230;47.522;19.098;2022-07-24T05:20:35;10.98;;;7.60;;
51128;SDS011;46230;47.522;19.098;2022-07-24T05:22:35;11.70;;;7.43;;
51128;SDS011;46230;47.522;19.098;2022-07-24T05:24:35;10.82;;;7.63;;
51128;SDS011;46230;47.522;19.098;2022-07-24T05:26:36;11.02;;;7.75;;
51128;SDS011;46230;47.522;19.098;2022-07-24T05:28:36;10.95;;;7.85;;
51128;SDS011;46230;47.522;19.098;2022-07-24T05:30:37;10.32;;;7.65;;
51128;SDS011;46230;47.522;19.098;2022-07-24T05:32:37;10.18;;;7.88;;
51128;SDS011;46230;47.522;19.098;2022-07-24T05:34:40;11.00;;;7.60;;
51128;SDS011;46230;47.522;19.098;2022-07-24T05:36:41;10.23;;;7.95;;
51128;SDS011;46230;47.522;19.098;2022-07-24T05:38:41;12.68;;;8.02;;
51128;SDS011;46230;47.522;19.098;2022-07-24T05:40:41;12.07;;;7.93;;
51128;SDS011;46230;47.522;19.098;2022-07-24T05:42:42;12.38;;;7.78;;
51128;SDS011;46230;47.522;19.098;2022-07-24T05:44:42;16.17;;;8.25;;
51128;SDS011;46230;47.522;19.098;2022-07-24T05:46:43;9.65;;;7.82;;
51128;SDS011;46230;47.522;19.098;2022-07-24T05:48:43;11.05;;;7.93;;
51128;SDS011;46230;47.522;19.098;2022-07-24T05:50:43;9.95;;;7.80;;
51128;SDS011;46230;47.522;19.098;2022-07-24T05:52:44;9.48;;;7.72;;
51128;SDS011;46230;47.522;19.098;2022-07-24T05:54:44;10.63;;;7.95;;
51128;SDS011;46230;47.522;19.098;2022-07-24T05:56:45;12.55;;;8.15;;
51128;SDS011;46230;47.522;19.098;2022-07-24T05:58:45;14.35;;;8.60;;
51128;SDS011;46230;47.522;19.098;2022-07-24T06:00:45;9.68;;;7.45;;
51128;SDS011;46230;47.522;19.098;2022-07-24T06:02:46;9.77;;;7.88;;
51128;SDS011;46230;47.522;19.098;2022-07-24T06:04:46;13.88;;;7.80;;
51128;SDS011;46230;47.522;19.098;2022-07-24T06:06:47;11.00;;;7.97;;
51128;SDS011;46230;47.522;19.098;2022-07-24T06:08:47;9.60;;;7.82;;
51128;SDS011;46230;47.522;19.098;2022-07-24T06:10:47;10.40;;;8.32;;
51128;SDS011;46230;47.522;19.098;2022-07-24T06:12:48;11.95;;;8.43;;
51128;SDS011;46230;47.522;19.098;2022-07-24T06:14:48;11.13;;;8.13;;
51128;SDS011;46230;47.522;19.098;2022-07-24T06:16:48;11.68;;;8.30;;
51128;SDS011;46230;47.522;19.098;2022-07-24T06:18:49;9.18;;;7.85;;
51128;SDS011;46230;47.522;19.098;2022-07-24T06:20:49;14.75;;;7.80;;
51128;SDS011;46230;47.522;19.098;2022-07-24T06:22:50;12.23;;;7.72;;
51128;SDS011;46230;47.522;19.098;2022-07-24T06:24:50;11.18;;;9.00;;
51128;SDS011;46230;47.522;19.098;2022-07-24T06:26:51;10.90;;;8.50;;
51128;SDS011;46230;47.522;19.098;2022-07-24T06:28:51;10.90;;;8.27;;
51128;SDS011;46230;47.522;19.098;2022-07-24T06:30:51;11.40;;;8.52;;
51128;SDS011;46230;47.522;19.098;2022-07-24T06:32:52;11.25;;;7.90;;
51128;SDS011;46230;47.522;19.098;2022-07-24T06:34:54;10.57;;;8.00;;
51128;SDS011;46230;47.522;19.098;2022-07-24T06:36:54;10.93;;;8.02;;
51128;SDS011;46230;47.522;19.098;2022-07-24T06:38:55;9.13;;;8.13;;
51128;SDS011;46230;47.522;19.098;2022-07-24T06:40:55;12.82;;;9.02;;
51128;SDS011;46230;47.522;19.098;2022-07-24T06:42:56;10.60;;;8.73;;
51128;SDS011;46230;47.522;19.098;2022-07-24T06:44:56;11.02;;;8.45;;
51128;SDS011;46230;47.522;19.098;2022-07-24T06:46:57;11.35;;;9.20;;
51128;SDS011;46230;47.522;19.098;2022-07-24T06:48:57;11.02;;;8.63;;
51128;SDS011;46230;47.522;19.098;2022-07-24T06:50:57;11.40;;;8.93;;
51128;SDS011;46230;47.522;19.098;2022-07-24T06:52:58;16.48;;;9.38;;
51128;SDS011;46230;47.522;19.098;2022-07-24T06:54:58;10.88;;;8.60;;
51128;SDS011;46230;47.522;19.098;2022-07-24T06:56:59;12.38;;;9.05;;
51128;SDS011;46230;47.522;19.098;2022-07-24T06:58:59;12.93;;;9.07;;
51128;SDS011;46230;47.522;19.098;2022-07-24T07:00:59;10.00;;;8.40;;
51128;SDS011;46230;47.522;19.098;2022-07-24T07:03:00;10.82;;;8.60;;
51128;SDS011;46230;47.522;19.098;2022-07-24T07:05:00;11.93;;;9.27;;
51128;SDS011;46230;47.522;19.098;2022-07-24T07:07:01;11.02;;;8.80;;
51128;SDS011;46230;47.522;19.098;2022-07-24T07:09:02;12.88;;;9.27;;
51128;SDS011;46230;47.522;19.098;2022-07-24T07:11:03;11.63;;;9.60;;
51128;SDS011;46230;47.522;19.098;2022-07-24T07:13:03;11.32;;;8.70;;
51128;SDS011;46230;47.522;19.098;2022-07-24T07:15:04;10.60;;;9.32;;
51128;SDS011;46230;47.522;19.098;2022-07-24T07:17:04;10.35;;;9.23;;
51128;SDS011;46230;47.522;19.098;2022-07-24T07:19:05;12.50;;;8.95;;
51128;SDS011;46230;47.522;19.098;2022-07-24T07:21:05;15.73;;;9.38;;
51128;SDS011;46230;47.522;19.098;2022-07-24T07:23:06;11.68;;;8.70;;
51128;SDS011;46230;47.522;19.098;2022-07-24T07:25:06;9.65;;;8.70;;
51128;SDS011;46230;47.522;19.098;2022-07-24T07:27:07;13.65;;;9.50;;
51128;SDS011;46230;47.522;19.098;2022-07-24T07:29:08;9.98;;;8.98;;
51128;SDS011;46230;47.522;19.098;2022-07-24T07:31:08;11.68;;;9.75;;
51128;SDS011;46230;47.522;19.098;2022-07-24T07:33:08;15.60;;;8.93;;
51128;SDS011;46230;47.522;19.098;2022-07-24T07:35:09;9.82;;;8.82;;
51128;SDS011;46230;47.522;19.098;2022-07-24T07:37:09;14.35;;;8.75;;
51128;SDS011;46230;47.522;19.098;2022-07-24T07:39:10;11.40;;;9.05;;
51128;SDS011;46230;47.522;19.098;2022-07-24T07:41:10;9.35;;;8.20;;
51128;SDS011;46230;47.522;19.098;2022-07-24T07:43:11;9.55;;;8.02;;
51128;SDS011;46230;47.522;19.098;2022-07-24T07:45:11;10.07;;;7.85;;
51128;SDS011;46230;47.522;19.098;2022-07-24T07:47:12;9.52;;;8.52;;
51128;SDS011;46230;47.522;19.098;2022-07-24T07:49:12;10.57;;;8.23;;
51128;SDS011;46230;47.522;19.098;2022-07-24T07:51:12;10.93;;;8.15;;
51128;SDS011;46230;47.522;19.098;2022-07-24T07:53:13;12.95;;;7.28;;
51128;SDS011;46230;47.522;19.098;2022-07-24T07:55:13;11.40;;;6.95;;
51128;SDS011;46230;47.522;19.098;2022-07-24T07:57:14;10.45;;;7.35;;
51128;SDS011;46230;47.522;19.098;2022-07-24T07:59:14;9.65;;;8.13;;
51128;SDS011;46230;47.522;19.098;2022-07-24T08:01:14;12.30;;;7.80;;
51128;SDS011;46230;47.522;19.098;2022-07-24T08:03:15;9.55;;;7.88;;
51128;SDS011;46230;47.522;19.098;2022-07-24T08:05:15;9.55;;;8.18;;
51128;SDS011;46230;47.522;19.098;2022-07-24T08:07:19;9.38;;;7.90;;
51128;SDS011;46230;47.522;19.098;2022-07-24T08:09:19;10.15;;;7.78;;
51128;SDS011;46230;47.522;19.098;2022-07-24T08:11:19;9.10;;;7.28;;
51128;SDS011;46230;47.522;19.098;2022-07-24T08:13:20;10.43;;;7.95;;
51128;SDS011;46230;47.522;19.098;2022-07-24T08:15:20;8.90;;;8.00;;
51128;SDS011;46230;47.522;19.098;2022-07-24T08:17:21;10.25;;;7.88;;
51128;SDS011;46230;47.522;19.098;2022-07-24T08:19:21;11.38;;;8.27;;
51128;SDS011;46230;47.522;19.098;2022-07-24T08:21:21;15.10;;;8.73;;
51128;SDS011;46230;47.522;19.098;2022-07-24T08:23:22;12.55;;;8.35;;
51128;SDS011;46230;47.522;19.098;2022-07-24T08:25:22;12.15;;;8.60;;
51128;SDS011;46230;47.522;19.098;2022-07-24T08:27:23;8.65;;;7.78;;
51128;SDS011;46230;47.522;19.098;2022-07-24T08:29:23;15.80;;;8.02;;
51128;SDS011;46230;47.522;19.098;2022-07-24T08:31:25;12.15;;;7.85;;
51128;SDS011;46230;47.522;19.098;2022-07-24T08:33:25;9.00;;;7.53;;
51128;SDS011;46230;47.522;19.098;2022-07-24T08:35:26;10.93;;;7.47;;
51128;SDS011;46230;47.522;19.098;2022-07-24T08:37:26;10.60;;;8.00;;
51128;SDS011;46230;47.522;19.098;2022-07-24T08:39:27;9.02;;;8.10;;
51128;SDS011;46230;47.522;19.098;2022-07-24T08:41:30;9.57;;;8.18;;
51128;SDS011;46230;47.522;19.098;2022-07-24T08:43:31;9.32;;;8.38;;
51128;SDS011;46230;47.522;19.098;2022-07-24T08:45:35;9.23;;;8.32;;
51128;SDS011;46230;47.522;19.098;2022-07-24T08:47:40;14.20;;;9.23;;
51128;SDS011;46230;47.522;19.098;2022-07-24T08:49:40;9.52;;;8.57;;
51128;SDS011;46230;47.522;19.098;2022-07-24T08:51:42;13.00;;;8.80;;
51128;SDS011;46230;47.522;19.098;2022-07-24T08:53:43;12.18;;;8.63;;
51128;SDS011;46230;47.522;19.098;2022-07-24T08:55:44;9.75;;;8.68;;
51128;SDS011;46230;47.522;19.098;2022-07-24T08:57:44;8.75;;;7.90;;
51128;SDS011;46230;47.522;19.098;2022-07-24T08:59:44;13.10;;;7.95;;
51128;SDS011;46230;47.522;19.098;2022-07-24T09:01:46;9.75;;;7.43;;
51128;SDS011;46230;47.522;19.098;2022-07-24T09:03:48;31.83;;;8.60;;
51128;SDS011;46230;47.522;19.098;2022-07-24T09:05:57;8.02;;;7.28;;
51128;SDS011;46230;47.522;19.098;2022-07-24T09:08:08;8.13;;;7.30;;
51128;SDS011;46230;47.522;19.098;2022-07-24T09:10:10;8.18;;;7.18;;
51128;SDS011;46230;47.522;19.098;2022-07-24T09:14:16;9.52;;;6.88;;
51128;SDS011;46230;47.522;19.098;2022-07-24T09:16:18;9.77;;;6.93;;
51128;SDS011;46230;47.522;19.098;2022-07-24T09:18:26;8.95;;;7.30;;
51128;SDS011;46230;47.522;19.098;2022-07-24T09:20:32;8.00;;;7.10;;
51128;SDS011;46230;47.522;19.098;2022-07-24T09:22:38;8.23;;;7.35;;
51128;SDS011;46230;47.522;19.098;2022-07-24T09:24:40;7.57;;;6.78;;
51128;SDS011;46230;47.522;19.098;2022-07-24T09:26:46;9.55;;;6.50;;
51128;SDS011;46230;47.522;19.098;2022-07-24T09:28:51;7.22;;;6.53;;
51128;SDS011;46230;47.522;19.098;2022-07-24T09:30:53;9.38;;;6.72;;
51128;SDS011;46230;47.522;19.098;2022-07-24T09:32:55;9.60;;;7.35;;
51128;SDS011;46230;47.522;19.098;2022-07-24T09:34:58;9.95;;;7.25;;
51128;SDS011;46230;47.522;19.098;2022-07-24T09:36:59;8.23;;;7.03;;
51128;SDS011;46230;47.522;19.098;2022-07-24T09:39:01;9.57;;;6.68;;
51128;SDS011;46230;47.522;19.098;2022-07-24T09:41:02;8.73;;;7.10;;
51128;SDS011;46230;47.522;19.098;2022-07-24T09:43:16;12.15;;;7.88;;
51128;SDS011;46230;47.522;19.098;2022-07-24T09:45:18;8.10;;;6.68;;
51128;SDS011;46230;47.522;19.098;2022-07-24T09:47:19;14.77;;;7.85;;
51128;SDS011;46230;47.522;19.098;2022-07-24T09:49:20;9.30;;;6.93;;
51128;SDS011;46230;47.522;19.098;2022-07-24T09:51:21;8.23;;;7.43;;
51128;SDS011;46230;47.522;19.098;2022-07-24T09:53:23;11.02;;;6.93;;
51128;SDS011;46230;47.522;19.098;2022-07-24T09:55:25;10.77;;;7.20;;
51128;SDS011;46230;47.522;19.098;2022-07-24T09:57:27;12.00;;;6.60;;
51128;SDS011;46230;47.522;19.098;2022-07-24T10:01:29;8.77;;;6.68;;
51128;SDS011;46230;47.522;19.098;2022-07-24T10:03:30;9.70;;;6.93;;
51128;SDS011;46230;47.522;19.098;2022-07-24T10:05:33;7.75;;;6.95;;
51128;SDS011;46230;47.522;19.098;2022-07-24T10:09:36;7.80;;;7.00;;
51128;SDS011;46230;47.522;19.098;2022-07-24T10:11:40;7.95;;;6.75;;
51128;SDS011;46230;47.522;19.098;2022-07-24T10:13:42;7.10;;;6.40;;
51128;SDS011;46230;47.522;19.098;2022-07-24T10:15:53;7.45;;;6.63;;
51128;SDS011;46230;47.522;19.098;2022-07-24T10:18:13;9.95;;;6.45;;
51128;SDS011;46230;47.522;19.098;2022-07-24T10:20:17;9.88;;;6.82;;
51128;SDS011;46230;47.522;19.098;2022-07-24T10:22:27;10.93;;;6.50;;
51128;SDS011;46230;47.522;19.098;2022-07-24T10:24:39;8.82;;;6.57;;
51128;SDS011;46230;47.522;19.098;2022-07-24T10:26:53;6.78;;;6.07;;
51128;SDS011;46230;47.522;19.098;2022-07-24T10:29:21;9.15;;;6.10;;
51128;SDS011;46230;47.522;19.098;2022-07-24T10:31:23;8.90;;;6.22;;
51128;SDS011;46230;47.522;19.098;2022-07-24T10:33:23;8.80;;;5.68;;
51128;SDS011;46230;47.522;19.098;2022-07-24T10:35:24;6.80;;;5.53;;
51128;SDS011;46230;47.522;19.098;2022-07-24T10:39:39;7.30;;;5.70;;
51128;SDS011;46230;47.522;19.098;2022-07-24T10:42:03;7.63;;;5.18;;
51128;SDS011;46230;47.522;19.098;2022-07-24T10:44:11;6.72;;;5.90;;
51128;SDS011;46230;47.522;19.098;2022-07-24T10:46:12;11.20;;;6.22;;
51128;SDS011;46230;47.522;19.098;2022-07-24T10:50:21;15.20;;;6.32;;
51128;SDS011;46230;47.522;19.098;2022-07-24T10:52:29;10.50;;;6.07;;
51128;SDS011;46230;47.522;19.098;2022-07-24T10:54:30;10.05;;;5.95;;
51128;SDS011;46230;47.522;19.098;2022-07-24T10:58:44;7.25;;;6.00;;
51128;SDS011;46230;47.522;19.098;2022-07-24T11:00:56;9.00;;;5.72;;
51128;SDS011;46230;47.522;19.098;2022-07-24T11:03:06;5.95;;;5.35;;
51128;SDS011;46230;47.522;19.098;2022-07-24T11:05:22;7.03;;;6.25;;
51128;SDS011;46230;47.522;19.098;2022-07-24T11:07:23;6.57;;;5.20;;
51128;SDS011;46230;47.522;19.098;2022-07-24T11:09:24;7.13;;;5.72;;
51128;SDS011;46230;47.522;19.098;2022-07-24T11:11:26;6.63;;;6.00;;
51128;SDS011;46230;47.522;19.098;2022-07-24T11:15:51;7.72;;;6.20;;
51128;SDS011;46230;47.522;19.098;2022-07-24T11:18:14;6.18;;;5.57;;
51128;SDS011;46230;47.522;19.098;2022-07-24T11:20:15;7.32;;;5.90;;
51128;SDS011;46230;47.522;19.098;2022-07-24T11:22:20;8.80;;;5.47;;
51128;SDS011;46230;47.522;19.098;2022-07-24T11:24:39;5.45;;;4.95;;
51128;SDS011;46230;47.522;19.098;2022-07-24T11:26:40;10.00;;;5.47;;
51128;SDS011;46230;47.522;19.098;2022-07-24T11:31:10;6.68;;;5.63;;
51128;SDS011;46230;47.522;19.098;2022-07-24T11:33:17;6.90;;;6.20;;
51128;SDS011;46230;47.522;19.098;2022-07-24T11:35:26;6.47;;;5.78;;
51128;SDS011;46230;47.522;19.098;2022-07-24T11:37:29;10.45;;;5.55;;
51128;SDS011;46230;47.522;19.098;2022-07-24T11:41:46;6.35;;;5.38;;
51128;SDS011;46230;47.522;19.098;2022-07-24T11:43:49;6.75;;;5.10;;
51128;SDS011;46230;47.522;19.098;2022-07-24T11:45:51;4.88;;;4.47;;
51128;SDS011;46230;47.522;19.098;2022-07-24T11:47:52;6.35;;;4.57;;
51128;SDS011;46230;47.522;19.098;2022-07-24T11:49:53;5.68;;;4.50;;
51128;SDS011;46230;47.522;19.098;2022-07-24T11:51:54;7.65;;;4.80;;
51128;SDS011;46230;47.522;19.098;2022-07-24T11:53:55;4.90;;;4.40;;
51128;SDS011;46230;47.522;19.098;2022-07-24T11:56:02;4.55;;;4.03;;
51128;SDS011;46230;47.522;19.098;2022-07-24T11:58:03;4.90;;;4.20;;
51128;SDS011;46230;47.522;19.098;2022-07-24T12:00:46;9.35;;;4.57;;
51128;SDS011;46230;47.522;19.098;2022-07-24T12:02:27;6.13;;;4.32;;
51128;SDS011;46230;47.522;19.098;2022-07-24T12:04:28;7.38;;;4.47;;
51128;SDS011;46230;47.522;19.098;2022-07-24T12:06:28;4.68;;;4.28;;
51128;SDS011;46230;47.522;19.098;2022-07-24T12:08:29;5.13;;;4.60;;
51128;SDS011;46230;47.522;19.098;2022-07-24T12:10:29;5.95;;;4.28;;
51128;SDS011;46230;47.522;19.098;2022-07-24T12:12:31;5.78;;;4.50;;
51128;SDS011;46230;47.522;19.098;2022-07-24T12:14:35;13.48;;;4.78;;
51128;SDS011;46230;47.522;19.098;2022-07-24T12:16:36;6.53;;;4.50;;
51128;SDS011;46230;47.522;19.098;2022-07-24T12:18:36;6.82;;;4.30;;
51128;SDS011;46230;47.522;19.098;2022-07-24T12:20:38;8.65;;;4.72;;